Time;durP1;ratioP1;P1;durP2;ratioP2;P2;SDS_P1;SDS_P2;PMS_P1;PMS_P2;Temp;Humidity;BMP_temperature;BMP_pressure;BME280_temperature;BME280_humidity;BME280_pressure;Samples;Min_cycle;Max_cycle;Signal;HPM_P1;HPM_P2
2022/01/09 00:02:24;;;;;;;15.00;3.63;;;6.70;99.90;;;;;;5087044;28;20607;-60
2022/01/09 00:04:50;;;;;;;16.70;4.63;;;6.70;99.90;;;;;;5073594;28;20191;-60
2022/01/09 00:07:16;;;;;;;22.97;5.27;;;6.70;99.90;;;;;;5066240;28;20234;-60
2022/01/09 00:09:44;;;;;;;12.00;3.63;;;6.70;99.90;;;;;;5092178;28;20216;-60
2022/01/09 00:12:10;;;;;;;16.87;3.93;;;6.80;99.90;;;;;;5090557;28;20204;-60
2022/01/09 00:14:36;;;;;;;13.80;3.87;;;6.70;99.90;;;;;;5092765;28;20259;-60
2022/01/09 00:17:03;;;;;;;22.20;3.90;;;6.80;99.90;;;;;;5055260;28;20268;-61
2022/01/09 00:19:29;;;;;;;14.63;3.63;;;6.80;99.90;;;;;;5072990;28;20638;-62
2022/01/09 00:21:54;;;;;;;19.60;4.40;;;6.90;99.90;;;;;;5022414;28;20217;-60
2022/01/09 00:24:20;;;;;;;24.60;4.10;;;6.90;99.90;;;;;;5070795;28;20651;-60
2022/01/09 00:26:46;;;;;;;17.27;6.53;;;6.90;99.90;;;;;;5057852;28;20263;-60
2022/01/09 00:29:12;;;;;;;6.70;3.60;;;6.80;99.90;;;;;;5085767;28;20192;-60
2022/01/09 00:31:37;;;;;;;13.10;4.23;;;6.80;99.90;;;;;;5077519;28;20188;-60
2022/01/09 00:34:03;;;;;;;13.13;5.33;;;6.80;99.90;;;;;;5090252;28;20197;-59
2022/01/09 00:36:30;;;;;;;21.27;5.47;;;6.90;99.90;;;;;;5059910;28;20272;-60
2022/01/09 00:38:56;;;;;;;13.90;4.67;;;6.90;99.90;;;;;;5096014;28;20280;-60
2022/01/09 00:41:22;;;;;;;16.13;5.13;;;6.90;99.90;;;;;;5087166;28;20689;-61
2022/01/09 00:43:48;;;;;;;29.47;5.13;;;7.00;99.90;;;;;;5089976;28;20265;-60
2022/01/09 00:46:14;;;;;;;21.43;4.73;;;6.90;99.90;;;;;;5085646;28;20547;-60
2022/01/09 00:48:39;;;;;;;11.17;4.77;;;6.90;99.90;;;;;;5061829;28;20683;-61
2022/01/09 00:51:05;;;;;;;23.57;5.00;;;6.90;99.90;;;;;;5078064;28;20189;-61
2022/01/09 00:53:31;;;;;;;14.77;4.60;;;7.00;99.90;;;;;;5095571;28;20279;-61
2022/01/09 00:56:00;;;;;;;15.03;4.87;;;7.10;99.90;;;;;;5060737;28;20193;-61
2022/01/09 00:58:25;;;;;;;17.43;6.03;;;7.10;99.90;;;;;;5054071;28;20220;-61
2022/01/09 01:00:52;;;;;;;23.00;5.43;;;7.10;99.90;;;;;;5061804;28;20236;-61
2022/01/09 01:03:19;;;;;;;14.97;5.07;;;7.00;99.90;;;;;;5095304;28;20705;-61
2022/01/09 01:05:45;;;;;;;21.37;4.40;;;7.00;99.90;;;;;;5095560;28;20184;-61
2022/01/09 01:08:10;;;;;;;16.07;6.77;;;7.00;99.90;;;;;;5087707;28;20192;-61
2022/01/09 01:10:36;;;;;;;19.63;4.17;;;7.00;99.90;;;;;;5077359;28;20203;-61
2022/01/09 01:13:02;;;;;;;16.00;3.93;;;7.00;99.90;;;;;;5095833;28;20215;-61
2022/01/09 01:15:29;;;;;;;12.93;4.83;;;7.00;99.90;;;;;;5060488;28;20637;-61
2022/01/09 01:17:54;;;;;;;22.53;5.70;;;7.00;99.90;;;;;;5092586;28;20173;-61
2022/01/09 01:20:21;;;;;;;24.50;4.23;;;7.10;99.90;;;;;;5095487;28;20211;-61
2022/01/09 01:22:50;;;;;;;22.63;4.87;;;7.00;99.90;;;;;;5060744;28;20184;-62
2022/01/09 01:25:20;;;;;;;14.60;3.93;;;7.10;99.90;;;;;;5093960;28;20172;-63
2022/01/09 01:27:46;;;;;;;17.67;5.17;;;7.00;99.90;;;;;;5093090;28;20177;-61
2022/01/09 01:30:15;;;;;;;21.97;6.10;;;7.00;99.90;;;;;;5086983;28;20188;-61
2022/01/09 01:32:42;;;;;;;13.33;4.50;;;7.00;99.90;;;;;;5095288;28;20262;-60
2022/01/09 01:35:09;;;;;;;12.67;4.40;;;6.90;99.90;;;;;;5076592;28;20216;-60
2022/01/09 01:37:38;;;;;;;16.27;4.00;;;7.00;99.90;;;;;;5076912;28;20178;-60
2022/01/09 01:40:07;;;;;;;12.47;3.87;;;6.90;99.90;;;;;;5094210;28;20550;-61
2022/01/09 01:42:32;;;;;;;21.23;4.37;;;6.90;99.90;;;;;;5094984;28;20184;-60
2022/01/09 01:44:58;;;;;;;19.07;4.77;;;6.90;99.90;;;;;;5094333;28;20238;-60
2022/01/09 01:47:24;;;;;;;15.33;5.57;;;6.80;99.90;;;;;;5093951;28;20199;-61
2022/01/09 01:49:50;;;;;;;18.43;6.30;;;6.80;99.90;;;;;;5076769;28;20730;-61
2022/01/09 01:52:21;;;;;;;5.37;4.00;;;6.70;99.90;;;;;;5083906;28;20292;-60
2022/01/09 01:54:47;;;;;;;8.40;3.80;;;6.80;99.90;;;;;;5094154;28;20161;-60
2022/01/09 01:57:13;;;;;;;15.60;5.77;;;6.70;99.90;;;;;;5076980;28;20191;-60
2022/01/09 01:59:39;;;;;;;15.13;5.23;;;6.70;99.90;;;;;;5081115;28;20192;-60
2022/01/09 02:02:04;;;;;;;23.33;6.20;;;6.70;99.90;;;;;;5057221;28;20275;-61
2022/01/09 02:04:30;;;;;;;7.37;3.97;;;6.70;99.90;;;;;;5073114;28;20197;-61
2022/01/09 02:06:56;;;;;;;15.70;4.57;;;6.80;99.90;;;;;;5073845;28;20621;-60
2022/01/09 02:09:24;;;;;;;14.20;5.17;;;6.80;99.90;;;;;;5082205;28;20254;-60
2022/01/09 02:11:50;;;;;;;11.67;4.80;;;6.80;99.90;;;;;;5085881;28;20666;-61
2022/01/09 02:14:16;;;;;;;17.00;4.77;;;6.80;99.90;;;;;;5086778;28;20261;-60
2022/01/09 02:16:42;;;;;;;16.47;4.43;;;6.80;99.90;;;;;;5084726;28;20196;-60
2022/01/09 02:19:13;;;;;;;12.83;3.73;;;6.80;99.90;;;;;;5094094;28;20180;-60
2022/01/09 02:21:44;;;;;;;11.40;4.87;;;6.80;99.90;;;;;;5093291;28;20295;-60
2022/01/09 02:24:11;;;;;;;17.23;4.10;;;6.80;99.90;;;;;;5093942;28;20397;-60
2022/01/09 02:26:37;;;;;;;21.90;4.50;;;6.80;99.90;;;;;;5093627;28;20177;-61
2022/01/09 02:29:05;;;;;;;21.57;4.57;;;6.80;99.90;;;;;;5094736;28;20463;-60
2022/01/09 02:31:32;;;;;;;18.97;4.40;;;6.90;99.90;;;;;;5094073;28;20280;-60
2022/01/09 02:33:58;;;;;;;10.60;3.90;;;6.80;99.90;;;;;;5058712;28;20330;-60
2022/01/09 02:36:23;;;;;;;7.80;3.03;;;6.80;99.90;;;;;;5087445;28;20199;-60
2022/01/09 02:38:49;;;;;;;12.07;4.17;;;6.60;99.90;;;;;;5075006;28;20197;-60
2022/01/09 02:41:15;;;;;;;14.93;3.60;;;6.70;99.90;;;;;;5075071;28;20285;-61
2022/01/09 02:43:41;;;;;;;8.83;2.73;;;6.70;99.90;;;;;;5087724;28;20186;-60
2022/01/09 02:46:16;;;;;;;15.07;3.20;;;6.60;99.90;;;;;;5078327;28;20192;-61
2022/01/09 02:48:43;;;;;;;10.93;3.50;;;6.60;99.90;;;;;;5085670;28;20692;-60
2022/01/09 02:51:17;;;;;;;18.07;4.17;;;6.50;99.90;;;;;;5082298;28;20529;-60
2022/01/09 02:53:47;;;;;;;11.63;4.23;;;6.50;99.90;;;;;;5081890;28;20637;-61
2022/01/09 02:56:14;;;;;;;4.97;3.13;;;6.40;99.90;;;;;;5068637;28;20189;-60
2022/01/09 02:58:41;;;;;;;6.67;2.93;;;6.50;99.90;;;;;;5073399;28;20593;-60
2022/01/09 03:01:10;;;;;;;9.90;4.53;;;6.50;99.90;;;;;;5044514;28;20205;-60
2022/01/09 03:03:36;;;;;;;14.80;3.93;;;6.50;99.90;;;;;;5093059;28;20242;-60
2022/01/09 03:06:02;;;;;;;16.33;3.40;;;6.60;99.90;;;;;;5075440;28;20646;-60
2022/01/09 03:08:28;;;;;;;7.50;3.30;;;6.60;99.90;;;;;;5092996;28;20267;-60
2022/01/09 03:10:54;;;;;;;10.17;2.60;;;6.60;99.90;;;;;;5092647;28;20199;-60
2022/01/09 03:13:20;;;;;;;15.57;4.03;;;6.50;99.90;;;;;;5058150;28;20185;-60
2022/01/09 03:15:46;;;;;;;15.57;2.67;;;6.50;99.90;;;;;;5056156;28;20646;-60
2022/01/09 03:18:12;;;;;;;7.60;2.77;;;6.50;99.90;;;;;;5074019;28;20185;-60
2022/01/09 03:20:38;;;;;;;6.83;2.87;;;6.40;99.90;;;;;;5063742;28;20224;-60
2022/01/09 03:23:05;;;;;;;7.63;2.77;;;6.40;99.90;;;;;;5074650;28;20549;-61
2022/01/09 03:25:30;;;;;;;13.63;2.83;;;6.50;99.90;;;;;;5079911;28;20188;-60
2022/01/09 03:27:57;;;;;;;14.37;2.93;;;6.50;99.90;;;;;;5087699;28;20199;-61
2022/01/09 03:30:23;;;;;;;9.07;2.57;;;6.40;99.90;;;;;;5060992;28;20195;-60
2022/01/09 03:32:51;;;;;;;19.03;4.43;;;6.40;99.90;;;;;;5092374;28;20189;-60
2022/01/09 03:35:19;;;;;;;11.30;3.07;;;6.40;99.90;;;;;;5092701;28;20591;-60
2022/01/09 03:37:46;;;;;;;16.17;2.80;;;6.40;99.90;;;;;;5092432;28;20177;-60
2022/01/09 03:40:20;;;;;;;12.03;3.53;;;6.40;99.90;;;;;;5058718;28;20180;-60
2022/01/09 03:42:48;;;;;;;12.50;3.33;;;6.40;99.90;;;;;;5072370;28;20589;-60
2022/01/09 03:45:14;;;;;;;11.30;4.13;;;6.40;99.90;;;;;;5086504;28;20191;-60
2022/01/09 03:47:41;;;;;;;6.17;3.07;;;6.40;99.90;;;;;;5058876;28;20193;-61
2022/01/09 03:50:10;;;;;;;16.77;3.13;;;6.40;99.90;;;;;;5075011;28;20230;-62
2022/01/09 03:52:38;;;;;;;11.03;3.37;;;6.40;99.90;;;;;;5092515;28;20516;-60
2022/01/09 03:55:05;;;;;;;5.70;1.93;;;6.50;99.90;;;;;;5074346;28;20312;-61
2022/01/09 03:57:31;;;;;;;15.10;2.87;;;6.40;99.90;;;;;;5067995;28;20272;-60
2022/01/09 03:59:57;;;;;;;11.40;2.53;;;6.40;99.90;;;;;;5042220;28;20288;-61
2022/01/09 04:02:22;;;;;;;14.57;2.70;;;6.30;99.90;;;;;;5074173;28;20748;-61
2022/01/09 04:04:48;;;;;;;7.87;2.23;;;6.20;99.90;;;;;;5078264;28;20216;-61
2022/01/09 04:07:15;;;;;;;10.07;3.13;;;6.20;99.90;;;;;;5073603;28;20216;-60
2022/01/09 04:09:44;;;;;;;8.73;4.43;;;6.30;99.90;;;;;;5087322;28;20189;-62
2022/01/09 04:12:16;;;;;;;10.23;2.53;;;6.20;99.90;;;;;;5092848;28;20249;-61
2022/01/09 04:14:47;;;;;;;10.67;2.13;;;6.20;99.90;;;;;;5075100;28;20205;-61
2022/01/09 04:17:22;;;;;;;6.43;2.83;;;6.20;99.90;;;;;;5093407;28;20172;-61
2022/01/09 04:19:48;;;;;;;10.33;2.97;;;6.20;99.90;;;;;;5064236;28;20249;-61
2022/01/09 04:22:14;;;;;;;9.20;3.00;;;6.20;99.90;;;;;;5081775;28;20241;-60
2022/01/09 04:24:40;;;;;;;6.37;2.50;;;6.30;99.90;;;;;;5057376;28;20199;-61
2022/01/09 04:27:05;;;;;;;5.80;2.40;;;6.20;99.90;;;;;;5057507;28;20189;-61
2022/01/09 04:29:31;;;;;;;12.33;4.07;;;6.10;99.90;;;;;;5074505;28;20192;-61
2022/01/09 04:31:57;;;;;;;12.87;2.83;;;6.20;99.90;;;;;;5057234;28;20546;-61
2022/01/09 04:34:23;;;;;;;3.17;1.70;;;6.20;99.90;;;;;;5074708;28;20185;-61
2022/01/09 04:36:48;;;;;;;10.07;4.07;;;6.30;99.90;;;;;;5052540;28;20192;-61
2022/01/09 04:39:14;;;;;;;6.67;2.43;;;6.30;99.90;;;;;;5074237;28;20184;-62
2022/01/09 04:41:40;;;;;;;12.03;4.80;;;6.50;99.90;;;;;;5053492;28;20320;-61
2022/01/09 04:44:05;;;;;;;13.03;3.70;;;6.50;99.90;;;;;;5055817;28;20184;-61
2022/01/09 04:46:41;;;;;;;6.67;2.33;;;6.50;99.90;;;;;;5075317;28;20258;-61
2022/01/09 04:49:07;;;;;;;15.87;2.50;;;6.60;99.90;;;;;;5065498;28;20185;-61
2022/01/09 04:51:33;;;;;;;16.03;3.23;;;6.60;99.90;;;;;;5091589;28;20275;-61
2022/01/09 04:53:58;;;;;;;12.83;2.43;;;6.60;99.90;;;;;;5073681;28;20209;-61
2022/01/09 04:56:24;;;;;;;12.43;2.73;;;6.50;99.90;;;;;;5090009;28;20585;-62
2022/01/09 04:58:50;;;;;;;5.80;2.93;;;6.50;99.90;;;;;;5078911;28;20196;-62
2022/01/09 05:01:15;;;;;;;9.27;2.10;;;6.40;99.90;;;;;;5047606;28;20217;-62
2022/01/09 05:03:41;;;;;;;12.07;3.37;;;6.40;99.90;;;;;;5075935;28;20196;-62
2022/01/09 05:06:07;;;;;;;4.97;2.07;;;6.40;99.90;;;;;;5073684;28;20181;-62
2022/01/09 05:08:32;;;;;;;8.47;2.77;;;6.40;99.90;;;;;;5063197;28;20268;-62
2022/01/09 05:10:58;;;;;;;5.43;2.00;;;6.40;99.90;;;;;;5073145;28;20212;-62
2022/01/09 05:13:24;;;;;;;9.47;2.70;;;6.50;99.90;;;;;;5078908;28;20196;-62
2022/01/09 05:15:49;;;;;;;6.60;2.03;;;6.50;99.90;;;;;;5073807;28;20221;-61
2022/01/09 05:18:15;;;;;;;5.17;2.47;;;6.60;99.90;;;;;;5082890;28;20186;-62
2022/01/09 05:20:42;;;;;;;9.33;2.13;;;6.60;99.90;;;;;;5080798;28;20299;-62
2022/01/09 05:23:08;;;;;;;4.30;2.20;;;6.60;99.90;;;;;;5093871;28;20188;-61
2022/01/09 05:25:34;;;;;;;16.87;2.43;;;6.60;99.90;;;;;;5067755;28;20254;-61
2022/01/09 05:28:00;;;;;;;12.77;2.33;;;6.60;99.90;;;;;;5086228;28;20196;-61
2022/01/09 05:30:25;;;;;;;9.47;2.83;;;6.60;99.90;;;;;;5084359;28;20189;-62
2022/01/09 05:32:51;;;;;;;6.97;2.43;;;6.50;99.90;;;;;;5087586;28;20193;-62
2022/01/09 05:35:17;;;;;;;7.40;2.00;;;6.50;99.90;;;;;;5043574;28;20193;-61
2022/01/09 05:37:42;;;;;;;6.30;2.43;;;6.40;99.90;;;;;;5094715;28;20224;-62
2022/01/09 05:40:09;;;;;;;12.07;2.17;;;6.50;99.90;;;;;;5062202;28;20193;-65
2022/01/09 05:42:34;;;;;;;10.27;2.27;;;6.60;99.90;;;;;;5074150;28;20545;-62
2022/01/09 05:45:04;;;;;;;9.23;2.73;;;6.60;99.90;;;;;;5094385;28;20189;-62
2022/01/09 05:47:30;;;;;;;6.17;2.30;;;6.60;99.90;;;;;;5095162;28;20188;-62
2022/01/09 05:49:55;;;;;;;9.70;2.17;;;6.60;99.90;;;;;;5085741;28;20199;-62
2022/01/09 05:52:24;;;;;;;7.47;2.60;;;6.50;99.90;;;;;;5064268;28;20204;-62
2022/01/09 05:54:50;;;;;;;9.73;2.50;;;6.50;99.90;;;;;;5094496;28;20191;-64
2022/01/09 05:57:15;;;;;;;10.57;3.07;;;6.50;99.90;;;;;;5064040;28;20181;-62
2022/01/09 05:59:41;;;;;;;15.33;2.60;;;6.50;99.90;;;;;;5087658;28;20576;-62
2022/01/09 06:02:07;;;;;;;6.83;2.30;;;6.40;99.90;;;;;;5088126;28;20689;-62
2022/01/09 06:04:32;;;;;;;10.53;2.97;;;6.60;99.90;;;;;;5076204;28;20664;-63
2022/01/09 06:06:58;;;;;;;8.30;2.60;;;6.50;99.90;;;;;;5085134;28;20660;-62
2022/01/09 06:09:24;;;;;;;10.27;1.67;;;6.40;99.90;;;;;;5083070;28;20189;-62
2022/01/09 06:11:50;;;;;;;8.00;2.23;;;6.50;99.90;;;;;;5094263;28;20282;-63
2022/01/09 06:14:17;;;;;;;10.33;3.13;;;6.40;99.90;;;;;;5093898;28;20573;-62
2022/01/09 06:16:43;;;;;;;7.07;2.40;;;6.40;99.90;;;;;;5094257;28;20281;-64
2022/01/09 06:19:10;;;;;;;11.87;3.03;;;6.40;99.90;;;;;;5078975;28;20270;-62
2022/01/09 06:21:36;;;;;;;2.50;1.87;;;6.40;99.90;;;;;;5077655;28;20212;-62
2022/01/09 06:24:02;;;;;;;5.87;2.83;;;6.50;99.90;;;;;;5076282;28;20206;-65
2022/01/09 06:26:28;;;;;;;5.27;2.80;;;6.60;99.90;;;;;;5076071;28;20638;-62
2022/01/09 06:28:53;;;;;;;11.13;2.80;;;6.50;99.90;;;;;;5090947;28;20196;-65
2022/01/09 06:31:19;;;;;;;13.77;2.93;;;6.40;99.90;;;;;;5085014;28;20277;-62
2022/01/09 06:33:44;;;;;;;5.27;2.20;;;6.30;99.90;;;;;;5075729;28;20222;-62
2022/01/09 06:36:10;;;;;;;8.93;2.73;;;6.40;99.90;;;;;;5082343;28;20217;-62
2022/01/09 06:38:37;;;;;;;8.37;2.57;;;6.30;99.90;;;;;;5079705;28;20276;-62
2022/01/09 06:41:03;;;;;;;7.77;2.77;;;6.30;99.90;;;;;;5081658;28;20609;-62
2022/01/09 06:43:29;;;;;;;8.03;3.43;;;6.30;99.90;;;;;;5085614;28;20657;-62
2022/01/09 06:45:55;;;;;;;11.23;4.03;;;6.20;99.90;;;;;;5075901;28;20192;-62
2022/01/09 06:48:20;;;;;;;8.47;3.20;;;6.10;99.90;;;;;;5082317;28;20185;-63
2022/01/09 06:50:46;;;;;;;3.93;2.90;;;6.00;99.90;;;;;;5075778;28;20192;-62
2022/01/09 06:53:11;;;;;;;12.10;2.87;;;6.00;99.90;;;;;;5073993;28;20556;-61
2022/01/09 06:55:37;;;;;;;4.43;2.63;;;5.90;99.90;;;;;;5083219;28;20642;-61
2022/01/09 06:58:03;;;;;;;9.27;3.07;;;5.90;99.90;;;;;;5078570;28;20193;-63
2022/01/09 07:00:28;;;;;;;5.47;2.77;;;5.90;99.90;;;;;;5083962;28;20558;-62
2022/01/09 07:02:54;;;;;;;12.13;3.67;;;5.90;99.90;;;;;;5075650;28;20192;-62
2022/01/09 07:05:20;;;;;;;11.70;2.23;;;5.80;99.90;;;;;;5061098;28;20645;-62
2022/01/09 07:07:45;;;;;;;6.10;2.80;;;5.80;99.90;;;;;;5074598;28;20195;-63
2022/01/09 07:10:12;;;;;;;8.83;3.20;;;5.80;99.90;;;;;;5075310;28;20202;-62
2022/01/09 07:12:38;;;;;;;11.83;2.67;;;5.70;99.90;;;;;;5092914;28;20200;-63
2022/01/09 07:15:05;;;;;;;8.40;3.07;;;5.70;99.90;;;;;;5093276;28;20191;-63
2022/01/09 07:17:31;;;;;;;11.60;4.37;;;5.70;99.90;;;;;;5065798;28;20193;-61
2022/01/09 07:19:57;;;;;;;12.30;3.07;;;5.70;99.90;;;;;;5055745;28;20186;-62
2022/01/09 07:22:22;;;;;;;9.80;2.33;;;5.70;99.90;;;;;;5054302;28;20223;-62
2022/01/09 07:24:48;;;;;;;19.17;3.20;;;5.70;99.90;;;;;;5081943;28;20184;-67
2022/01/09 07:27:14;;;;;;;7.73;3.40;;;5.80;99.90;;;;;;5093214;28;20694;-61
2022/01/09 07:29:39;;;;;;;9.00;2.83;;;5.80;99.90;;;;;;5073999;28;20189;-60
2022/01/09 07:32:05;;;;;;;7.47;2.77;;;5.80;99.90;;;;;;5092162;28;20188;-60
2022/01/09 07:34:31;;;;;;;4.87;2.50;;;5.80;99.90;;;;;;5077886;28;20185;-61
2022/01/09 07:36:58;;;;;;;12.47;3.23;;;5.80;99.90;;;;;;5077992;28;20193;-60
2022/01/09 07:39:23;;;;;;;9.57;2.93;;;5.70;99.90;;;;;;5085152;28;20196;-61
2022/01/09 07:41:50;;;;;;;3.87;2.77;;;5.80;99.90;;;;;;5086976;28;20216;-60
2022/01/09 07:44:16;;;;;;;7.33;2.10;;;5.80;99.90;;;;;;5091538;28;20188;-60
2022/01/09 07:46:41;;;;;;;5.10;2.73;;;5.80;99.90;;;;;;5091270;28;20650;-60
2022/01/09 07:49:07;;;;;;;11.50;3.00;;;5.90;99.90;;;;;;5071600;28;20199;-61
2022/01/09 07:51:33;;;;;;;11.47;2.63;;;6.00;99.90;;;;;;5093583;28;20177;-60
2022/01/09 07:53:58;;;;;;;7.07;2.23;;;6.10;99.90;;;;;;5092174;28;20271;-63
2022/01/09 07:56:24;;;;;;;6.90;2.30;;;6.10;99.90;;;;;;5055818;28;20212;-66
2022/01/09 07:58:49;;;;;;;8.43;3.23;;;6.20;99.90;;;;;;5069674;28;20192;-73
2022/01/09 08:01:15;;;;;;;14.60;2.73;;;6.20;99.90;;;;;;5085959;28;20201;-69
2022/01/09 08:03:41;;;;;;;4.13;2.40;;;6.10;99.90;;;;;;5064751;28;20189;-73
2022/01/09 08:06:06;;;;;;;4.33;2.00;;;6.10;99.90;;;;;;5074536;28;20192;-74
2022/01/09 08:08:32;;;;;;;9.37;2.60;;;6.20;99.90;;;;;;5076848;28;20687;-70
2022/01/09 08:10:58;;;;;;;15.07;3.00;;;6.20;99.90;;;;;;5070424;28;20216;-76
2022/01/09 08:13:23;;;;;;;5.93;3.10;;;6.20;99.90;;;;;;5068326;28;20551;-71
2022/01/09 08:15:49;;;;;;;10.97;2.43;;;6.50;99.90;;;;;;5066404;28;20360;-70
2022/01/09 08:18:15;;;;;;;9.47;2.63;;;6.40;99.90;;;;;;5073577;28;20216;-72
2022/01/09 08:20:40;;;;;;;6.97;2.83;;;6.40;99.90;;;;;;5082720;28;20217;-68
2022/01/09 08:23:06;;;;;;;5.43;2.27;;;6.50;99.90;;;;;;5048697;28;20596;-71
2022/01/09 08:25:32;;;;;;;13.47;3.53;;;6.40;99.90;;;;;;5092641;28;20200;-68
2022/01/09 08:27:58;;;;;;;7.03;2.40;;;6.50;99.90;;;;;;5078868;28;20643;-67
2022/01/09 08:30:24;;;;;;;8.37;3.47;;;6.50;99.90;;;;;;5063785;28;20181;-69
2022/01/09 08:32:53;;;;;;;8.70;2.83;;;6.50;99.90;;;;;;5066192;28;20223;-71
2022/01/09 08:35:21;;;;;;;7.80;2.53;;;6.30;99.90;;;;;;5092388;28;20555;-70
2022/01/09 08:37:47;;;;;;;11.73;2.80;;;6.40;99.90;;;;;;5062152;28;20315;-69
2022/01/09 08:40:20;;;;;;;6.60;2.60;;;6.40;99.90;;;;;;5056336;28;20197;-68
2022/01/09 08:42:46;;;;;;;6.83;2.33;;;6.30;99.90;;;;;;5073437;28;20185;-68
2022/01/09 08:45:12;;;;;;;3.37;1.67;;;6.30;99.90;;;;;;5083636;28;20212;-66
2022/01/09 08:47:38;;;;;;;7.80;2.63;;;6.40;99.90;;;;;;5074154;28;20235;-67
2022/01/09 08:50:06;;;;;;;5.33;2.17;;;6.50;99.90;;;;;;5056914;28;20184;-69
2022/01/09 08:52:32;;;;;;;8.20;2.60;;;6.60;99.90;;;;;;5090685;28;20654;-62
2022/01/09 08:54:59;;;;;;;6.40;2.33;;;6.60;99.90;;;;;;5075808;28;20300;-61
2022/01/09 08:57:25;;;;;;;10.70;3.70;;;6.60;99.90;;;;;;5072010;28;20189;-63
2022/01/09 08:59:52;;;;;;;11.57;1.93;;;6.60;99.90;;;;;;5061255;28;20191;-62
2022/01/09 09:02:17;;;;;;;4.70;2.83;;;6.70;99.90;;;;;;5069860;28;20233;-62
2022/01/09 09:04:43;;;;;;;6.77;2.47;;;6.70;99.90;;;;;;5059761;28;20219;-63
2022/01/09 09:07:09;;;;;;;8.10;2.87;;;6.60;99.90;;;;;;5083168;28;20180;-60
2022/01/09 09:09:36;;;;;;;12.57;3.10;;;6.50;99.90;;;;;;5084562;28;20280;-61
2022/01/09 09:12:02;;;;;;;7.50;2.33;;;6.40;99.90;;;;;;5084595;28;20196;-61
2022/01/09 09:14:28;;;;;;;9.13;3.10;;;6.40;99.90;;;;;;5077161;28;20180;-61
2022/01/09 09:16:54;;;;;;;11.73;3.17;;;6.40;99.90;;;;;;5072799;28;20197;-62
2022/01/09 09:19:19;;;;;;;6.63;2.27;;;6.40;99.90;;;;;;5057279;28;20246;-61
2022/01/09 09:21:46;;;;;;;8.07;3.43;;;6.40;99.90;;;;;;5059464;28;20212;-62
2022/01/09 09:24:13;;;;;;;11.20;2.47;;;6.50;99.90;;;;;;5092880;28;20193;-61
2022/01/09 09:26:39;;;;;;;5.50;2.20;;;6.50;99.90;;;;;;5077740;28;20192;-62
2022/01/09 09:29:07;;;;;;;10.10;2.47;;;6.40;99.90;;;;;;5060027;28;20701;-61
2022/01/09 09:31:34;;;;;;;4.97;3.47;;;6.40;99.90;;;;;;5095233;28;20200;-62
2022/01/09 09:34:00;;;;;;;8.17;3.10;;;6.40;99.90;;;;;;5078260;28;20213;-62
2022/01/09 09:36:26;;;;;;;10.13;2.70;;;6.40;99.90;;;;;;5082109;28;20180;-61
2022/01/09 09:38:55;;;;;;;7.93;2.83;;;6.50;99.90;;;;;;5083733;28;20212;-62
2022/01/09 09:41:25;;;;;;;5.17;3.17;;;6.50;99.90;;;;;;5087428;28;20337;-63
2022/01/09 09:43:52;;;;;;;8.87;3.03;;;6.50;99.90;;;;;;5083522;28;20188;-61
2022/01/09 09:46:25;;;;;;;10.97;3.67;;;6.70;99.90;;;;;;5095269;28;20177;-62
2022/01/09 09:48:53;;;;;;;11.20;2.57;;;7.00;99.90;;;;;;5067030;28;20193;-62
2022/01/09 09:51:20;;;;;;;5.30;1.97;;;7.10;99.90;;;;;;5091947;28;20692;-62
2022/01/09 09:53:45;;;;;;;4.10;2.37;;;7.20;99.90;;;;;;5059913;28;20834;-66
2022/01/09 09:56:11;;;;;;;3.67;2.37;;;7.30;99.90;;;;;;5094762;28;20183;-66
2022/01/09 09:58:45;;;;;;;7.30;2.33;;;7.20;99.90;;;;;;5095655;28;20558;-61
2022/01/09 10:01:27;;;;;;;8.53;2.67;;;7.20;99.90;;;;;;5079923;28;20600;-62
2022/01/09 10:04:07;;;;;;;10.30;5.17;;;7.20;99.90;;;;;;5094818;28;20210;-62
2022/01/09 10:06:47;;;;;;;13.80;2.37;;;7.30;99.90;;;;;;5076088;28;20326;-67
2022/01/09 10:09:21;;;;;;;11.73;2.63;;;7.40;99.90;;;;;;5091053;28;20185;-68
2022/01/09 10:11:52;;;;;;;12.97;2.30;;;7.40;99.90;;;;;;5086308;28;20244;-60
2022/01/09 10:14:21;;;;;;;24.07;3.47;;;7.50;99.90;;;;;;5073449;28;20189;-60
2022/01/09 10:17:08;;;;;;;8.33;2.33;;;7.50;99.90;;;;;;5093180;28;20177;-62
2022/01/09 10:19:44;;;;;;;10.90;2.80;;;7.50;99.90;;;;;;5079550;28;20192;-60
2022/01/09 10:22:24;;;;;;;4.27;2.30;;;7.50;99.90;;;;;;5084587;28;20267;-60
2022/01/09 10:24:50;;;;;;;9.87;3.33;;;7.50;99.90;;;;;;5090929;28;20597;-61
2022/01/09 10:27:35;;;;;;;8.37;2.87;;;7.40;99.90;;;;;;5094491;28;20210;-60
2022/01/09 10:30:03;;;;;;;9.87;4.07;;;7.40;99.90;;;;;;5076520;28;20161;-60
2022/01/09 10:32:30;;;;;;;6.33;2.40;;;7.30;99.90;;;;;;5093762;28;20213;-60
2022/01/09 10:35:08;;;;;;;12.00;3.90;;;7.30;99.90;;;;;;5093817;28;20711;-61
2022/01/09 10:37:35;;;;;;;10.87;2.43;;;7.40;99.90;;;;;;5093728;28;20180;-60
2022/01/09 10:40:05;;;;;;;14.23;4.07;;;7.40;99.90;;;;;;5083815;28;20200;-61
2022/01/09 10:42:31;;;;;;;13.50;2.87;;;7.30;99.90;;;;;;5093536;28;20208;-61
2022/01/09 10:45:19;;;;;;;7.23;2.63;;;7.30;99.90;;;;;;5060321;28;20335;-62
2022/01/09 10:47:45;;;;;;;8.20;2.17;;;7.30;99.90;;;;;;5078794;28;20192;-62
2022/01/09 10:50:27;;;;;;;7.53;3.60;;;7.30;99.90;;;;;;5093660;28;20272;-63
2022/01/09 10:53:18;;;;;;;8.87;2.90;;;7.20;99.90;;;;;;5093531;28;20217;-68
2022/01/09 10:55:46;;;;;;;3.63;2.27;;;7.20;99.90;;;;;;5092726;28;20618;-67
2022/01/09 10:58:22;;;;;;;4.80;2.37;;;7.10;99.90;;;;;;5093458;28;20269;-70
2022/01/09 11:01:05;;;;;;;18.90;3.70;;;7.20;99.90;;;;;;5091941;28;20214;-68
2022/01/09 11:03:31;;;;;;;6.80;3.13;;;7.30;99.90;;;;;;5080745;28;20254;-69
2022/01/09 11:05:58;;;;;;;13.07;2.73;;;7.30;99.90;;;;;;5075441;28;20181;-67
2022/01/09 11:08:24;;;;;;;15.53;5.33;;;7.40;99.90;;;;;;5063573;28;20181;-67
2022/01/09 11:10:50;;;;;;;7.40;2.73;;;7.40;99.90;;;;;;5086562;28;20196;-67
2022/01/09 11:13:17;;;;;;;10.87;3.60;;;7.40;99.90;;;;;;5071966;28;20711;-62
2022/01/09 11:16:32;;;;;;;13.03;3.03;;;7.40;99.90;;;;;;5068329;28;20180;-64
2022/01/09 11:18:31;;;;;;;18.17;3.70;;;7.50;99.90;;;;;;5079848;28;20330;-62
2022/01/09 11:20:57;;;;;;;7.27;2.80;;;7.60;99.90;;;;;;5075793;28;20216;-62
2022/01/09 11:23:28;;;;;;;7.50;2.90;;;7.70;99.90;;;;;;5074977;28;20193;-62
2022/01/09 11:25:58;;;;;;;7.13;2.47;;;7.70;99.90;;;;;;5092050;28;20164;-62
2022/01/09 11:28:28;;;;;;;9.77;2.87;;;7.70;99.90;;;;;;5073696;28;20268;-62
2022/01/09 11:31:24;;;;;;;10.20;2.53;;;7.60;99.90;;;;;;5073664;28;20173;-63
2022/01/09 11:34:16;;;;;;;7.47;3.77;;;7.70;99.90;;;;;;5079867;28;20204;-61
2022/01/09 11:37:00;;;;;;;4.40;1.87;;;7.80;99.90;;;;;;5080633;28;20284;-67
2022/01/09 11:39:35;;;;;;;12.97;2.33;;;7.90;99.90;;;;;;5080823;28;20181;-63
2022/01/09 11:42:07;;;;;;;7.63;2.77;;;7.80;99.90;;;;;;5092671;28;20249;-63
2022/01/09 11:44:33;;;;;;;9.67;2.30;;;7.90;99.90;;;;;;5092328;28;20589;-63
2022/01/09 11:47:06;;;;;;;11.13;2.87;;;7.90;99.90;;;;;;5085409;28;20193;-62
2022/01/09 11:49:53;;;;;;;3.73;2.73;;;8.00;99.90;;;;;;5083076;28;20215;-63
2022/01/09 11:52:20;;;;;;;8.23;2.73;;;8.00;99.90;;;;;;5084000;28;20278;-63
2022/01/09 11:54:51;;;;;;;7.27;2.70;;;8.10;99.90;;;;;;5077840;28;20635;-64
2022/01/09 11:57:37;;;;;;;4.77;2.57;;;8.10;99.90;;;;;;5073308;28;20200;-62
2022/01/09 12:00:06;;;;;;;8.10;2.67;;;8.10;99.90;;;;;;5085024;28;20177;-65
2022/01/09 12:02:34;;;;;;;8.13;1.93;;;8.20;99.90;;;;;;5086458;28;20201;-62
2022/01/09 12:05:03;;;;;;;8.77;2.33;;;8.20;99.90;;;;;;5081045;28;20257;-63
2022/01/09 12:07:32;;;;;;;8.57;2.20;;;8.20;99.90;;;;;;5084210;28;20285;-64
2022/01/09 12:09:59;;;;;;;8.93;2.60;;;8.20;99.90;;;;;;5081887;28;20197;-67
2022/01/09 12:12:36;;;;;;;7.97;2.60;;;8.30;99.90;;;;;;5079251;28;20197;-64
2022/01/09 12:15:04;;;;;;;6.53;2.30;;;8.30;99.90;;;;;;5058361;28;20176;-64
2022/01/09 12:17:46;;;;;;;15.60;2.50;;;8.50;99.90;;;;;;5092674;28;20271;-64
2022/01/09 12:20:13;;;;;;;3.97;2.23;;;8.50;99.90;;;;;;5060240;28;20186;-66
2022/01/09 12:22:48;;;;;;;3.37;2.13;;;8.40;99.90;;;;;;5073303;28;20208;-66
2022/01/09 12:25:26;;;;;;;3.53;2.53;;;8.60;99.90;;;;;;5091745;28;20196;-65
2022/01/09 12:28:08;;;;;;;6.57;2.13;;;8.80;99.90;;;;;;5092349;28;20648;-66
2022/01/09 12:30:40;;;;;;;6.83;2.13;;;9.00;99.90;;;;;;5087365;28;20638;-71
2022/01/09 12:33:34;;;;;;;17.07;6.03;;;9.00;99.90;;;;;;5088921;28;20554;-69
2022/01/09 12:36:18;;;;;;;14.03;2.73;;;9.00;99.90;;;;;;5083320;28;20667;-66
2022/01/09 12:38:45;;;;;;;12.07;3.27;;;8.90;99.90;;;;;;5096182;28;20185;-65
2022/01/09 12:41:18;;;;;;;6.23;2.63;;;8.90;99.90;;;;;;5095772;28;20235;-64
2022/01/09 12:43:45;;;;;;;5.73;2.20;;;9.00;99.90;;;;;;5092705;28;20184;-65
2022/01/09 12:46:21;;;;;;;6.30;3.23;;;8.90;99.90;;;;;;5058545;28;20177;-65
2022/01/09 12:49:00;;;;;;;7.67;4.27;;;8.80;99.90;;;;;;5076691;28;20267;-69
2022/01/09 12:51:29;;;;;;;5.70;3.07;;;8.70;99.90;;;;;;5066859;28;20513;-68
2022/01/09 12:53:56;;;;;;;6.93;2.20;;;8.70;99.90;;;;;;5095219;28;20660;-69
2022/01/09 12:56:25;;;;;;;7.37;2.83;;;8.70;99.90;;;;;;5078067;28;20227;-68
2022/01/09 12:58:56;;;;;;;4.27;2.33;;;8.90;99.90;;;;;;5078226;28;20188;-70